| time (UTC) | temp F | wind direction | speed knots | gust knots | rain 1hr in | rain 24hr in | rain mn in | humidity % | barometer mb |
| 20260505200441 | 76 | 296 | 1.7 | 3.5 | 0.00 | 0.00 | 0.00 | 42 | 1012.3 |
| 20260505195937 | 77 | 335 | 1.7 | 2.6 | 0.00 | 0.00 | 0.00 | 40 | 1012.5 |
| 20260505195434 | 77 | 176 | 0.9 | 0.9 | 0.00 | 0.00 | 0.00 | 41 | 1012.3 |
| 20260505194931 | 76 | 96 | 0.9 | 0.9 | 0.00 | 0.00 | 0.00 | 46 | 1012.3 |
| 20260505194428 | 76 | 39 | 0.0 | 1.7 | 0.00 | 0.00 | 0.00 | 43 | 1012.4 |
| 20260505193923 | 76 | 87 | 5.2 | 7.0 | 0.00 | 0.00 | 0.00 | 43 | 1012.7 |
| 20260505193421 | 76 | 287 | 0.9 | 3.5 | 0.00 | 0.00 | 0.00 | 44 | 1012.8 |
| 20260505192918 | 76 | 157 | 0.9 | 5.2 | 0.00 | 0.00 | 0.00 | 42 | 1012.9 |
| 20260505192416 | 76 | 90 | 0.9 | 3.5 | 0.00 | 0.00 | 0.00 | 44 | 1012.7 |
| 20260505191913 | 76 | 268 | 0.9 | 7.8 | 0.00 | 0.00 | 0.00 | 42 | 1012.8 |
| 20260505191412 | 76 | 342 | 0.0 | 3.5 | 0.00 | 0.00 | 0.00 | 42 | 1012.8 |
| 20260505190908 | 77 | 53 | 1.7 | 2.6 | 0.00 | 0.00 | 0.00 | 43 | 1012.6 |
| 20260505190404 | 77 | 305 | 1.7 | 1.7 | 0.00 | 0.00 | 0.00 | 43 | 1012.9 |
| 20260505185859 | 76 | 288 | 0.9 | 1.7 | 0.00 | 0.00 | 0.00 | 42 | 1012.7 |
| 20260505185356 | 76 | 82 | 0.0 | 1.7 | 0.00 | 0.00 | 0.00 | 44 | 1012.6 |
| 20260505184852 | 76 | 13 | 0.9 | 0.9 | 0.00 | 0.00 | 0.00 | 43 | 1012.9 |
| 20260505184350 | 76 | 127 | 0.0 | 2.6 | 0.00 | 0.00 | 0.00 | 46 | 1012.9 |
| 20260505183847 | 76 | 45 | 1.7 | 1.7 | 0.00 | 0.00 | 0.00 | 43 | 1013.2 |
| 20260505183343 | 76 | 189 | 0.9 | 2.6 | 0.00 | 0.00 | 0.00 | 43 | 1013.0 |
| 20260505182840 | 76 | 332 | 1.7 | 3.5 | 0.00 | 0.00 | 0.00 | 42 | 1013.1 |
| 20260505182337 | 76 | 296 | 1.7 | 1.7 | 0.00 | 0.00 | 0.00 | 46 | 1013.0 |
| 20260505181834 | 76 | 211 | 2.6 | 3.5 | 0.00 | 0.00 | 0.00 | 43 | 1012.9 |
| 20260505181331 | 78 | 167 | 2.6 | 7.0 | 0.00 | 0.00 | 0.00 | 43 | 1012.9 |
| 20260505180827 | 77 | 298 | 2.6 | 6.1 | 0.00 | 0.00 | 0.00 | 42 | 1013.1 |
| 20260505180324 | 76 | 37 | 1.7 | 3.5 | 0.00 | 0.00 | 0.00 | 43 | 1013.0 |
| 20260505175820 | 77 | 271 | 0.9 | 3.5 | 0.00 | 0.00 | 0.00 | 44 | 1013.2 |
| 20260505175317 | 77 | 138 | 1.7 | 3.5 | 0.00 | 0.00 | 0.00 | 42 | 1013.0 |
| 20260505174814 | 78 | 56 | 0.0 | 0.9 | 0.00 | 0.00 | 0.00 | 41 | 1013.0 |
| 20260505174311 | 77 | 35 | 1.7 | 7.8 | 0.00 | 0.00 | 0.00 | 41 | 1013.0 |
| 20260505173807 | 77 | 67 | 0.9 | 5.2 | 0.00 | 0.00 | 0.00 | 42 | 1013.2 |
| 20260505173303 | 77 | 39 | 1.7 | 2.6 | 0.00 | 0.00 | 0.00 | 44 | 1013.0 |
| 20260505172801 | 77 | 281 | 1.7 | 6.1 | 0.00 | 0.00 | 0.00 | 41 | 1013.0 |
| 20260505172258 | 77 | 18 | 3.5 | 5.2 | 0.00 | 0.00 | 0.00 | 43 | 1013.0 |
| 20260505171753 | 77 | 319 | 0.9 | 2.6 | 0.00 | 0.00 | 0.00 | 43 | 1013.0 |
| 20260505171250 | 77 | 333 | 1.7 | 2.6 | 0.00 | 0.00 | 0.00 | 45 | 1013.1 |
| 20260505170746 | 77 | 63 | 1.7 | 2.6 | 0.00 | 0.00 | 0.00 | 43 | 1012.9 |
| 20260505170243 | 77 | 289 | 1.7 | 3.5 | 0.00 | 0.00 | 0.00 | 41 | 1013.2 |
| 20260505165738 | 77 | 308 | 0.9 | 3.5 | 0.00 | 0.00 | 0.00 | 49 | 1013.3 |
| 20260505165235 | 76 | 351 | 0.9 | 1.7 | 0.00 | 0.00 | 0.00 | 44 | 1013.4 |
| 20260505164730 | 76 | 296 | 2.6 | 3.5 | 0.00 | 0.00 | 0.00 | 46 | 1013.3 |
| 20260505164228 | 76 | 120 | 0.0 | 3.5 | 0.00 | 0.00 | 0.00 | 47 | 1013.4 |
| 20260505163726 | 76 | 86 | 0.9 | 8.7 | 0.00 | 0.00 | 0.00 | 46 | 1013.5 |
| 20260505163224 | 76 | 295 | 3.5 | 5.2 | 0.00 | 0.00 | 0.00 | 46 | 1013.7 |
| 20260505162721 | 76 | 308 | 1.7 | 6.1 | 0.00 | 0.00 | 0.00 | 47 | 1013.4 |
| 20260505162218 | 76 | 225 | 0.9 | 6.1 | 0.00 | 0.00 | 0.00 | 49 | 1013.7 |
| 20260505161715 | 76 | 278 | 0.9 | 7.0 | 0.00 | 0.00 | 0.00 | 46 | 1013.6 |
| 20260505161213 | 76 | 281 | 0.9 | 3.5 | 0.00 | 0.00 | 0.00 | 44 | 1013.5 |
| 20260505160710 | 76 | 196 | 1.7 | 3.5 | 0.00 | 0.00 | 0.00 | 49 | 1013.6 |
| 20260505160207 | 76 | 35 | 2.6 | 6.1 | 0.00 | 0.00 | 0.00 | 47 | 1013.8 |
| 20260505153146 | 74 | 40 | 0.0 | 1.7 | 0.00 | 0.00 | 0.00 | 47 | 1013.8 |
| 20260505152643 | 74 | 82 | 0.9 | 2.6 | 0.00 | 0.00 | 0.00 | 51 | 1013.8 |
| 20260505152139 | 74 | 38 | 2.6 | 3.5 | 0.00 | 0.00 | 0.00 | 46 | 1013.8 |
| 20260505151634 | 73 | 292 | 1.7 | 7.0 | 0.00 | 0.00 | 0.00 | 50 | 1013.9 |
| 20260505151132 | 74 | 163 | 0.0 | 7.0 | 0.00 | 0.00 | 0.00 | 49 | 1013.9 |
| 20260505150628 | 73 | 67 | 1.7 | 6.1 | 0.00 | 0.00 | 0.00 | 50 | 1013.6 |
| 20260505150125 | 73 | 289 | 0.0 | 1.7 | 0.00 | 0.00 | 0.00 | 49 | 1013.6 |
| 20260505140554 | 71 | 65 | 0.9 | 2.6 | 0.00 | 0.00 | 0.00 | 49 | 1013.9 |
| 20260505125007 | 65 | 200 | 0.0 | 0.0 | 0.00 | 0.00 | 0.00 | 72 | 1013.9 |
| 20260505124504 | 64 | 56 | 0.0 | 0.0 | 0.00 | 0.00 | 0.00 | 71 | 1014.0 |
| 20260505124000 | 64 | 279 | 0.0 | 0.0 | 0.00 | 0.00 | 0.00 | 75 | 1014.0 |
| 20260505123456 | 63 | 130 | 0.0 | 0.0 | 0.00 | 0.00 | 0.00 | 79 | 1013.8 |
| 20260505122952 | 60 | 181 | 0.0 | 0.0 | 0.00 | 0.00 | 0.00 | 89 | 1013.9 |
| 20260505122450 | 60 | 159 | 0.0 | 0.0 | 0.00 | 0.00 | 0.00 | 90 | 1013.8 |
| 20260505121946 | 58 | 169 | 0.0 | 0.0 | 0.00 | 0.00 | 0.00 | 92 | 1014.0 |
| 20260505121443 | 57 | 170 | 0.0 | 0.0 | 0.00 | 0.00 | 0.00 | 95 | 1013.8 |
| 20260505120939 | 55 | 139 | 0.0 | 0.0 | 0.00 | 0.00 | 0.00 | 98 | 1013.6 |
| 20260505120436 | 54 | 164 | 0.0 | 0.0 | 0.00 | 0.00 | 0.00 | 99 | 1013.6 |
| 20260505115935 | 53 | 174 | 0.0 | 0.0 | 0.00 | 0.00 | 0.00 | 99 | 1013.6 |
| 20260505115431 | 53 | 174 | 0.0 | 0.0 | 0.00 | 0.00 | 0.00 | 99 | 1013.8 |
| 20260505114929 | 52 | 183 | 0.0 | 0.0 | 0.00 | 0.00 | 0.00 | 99 | 1013.8 |
| 20260505114425 | 52 | 174 | 0.0 | 0.0 | 0.00 | 0.00 | 0.00 | 99 | 1013.8 |
| 20260505113921 | 52 | 169 | 0.0 | 0.0 | 0.00 | 0.00 | 0.00 | 99 | 1013.9 |
| 20260505113419 | 51 | 169 | 0.0 | 0.0 | 0.00 | 0.00 | 0.00 | 99 | 1013.8 |
| 20260505112914 | 51 | 169 | 0.0 | 0.0 | 0.00 | 0.00 | 0.00 | 99 | 1013.5 |
| 20260505112412 | 51 | 185 | 0.0 | 0.0 | 0.00 | 0.00 | 0.00 | 99 | 1013.7 |
| 20260505111908 | 51 | 182 | 0.0 | 0.0 | 0.00 | 0.00 | 0.00 | 99 | 1013.6 |
| 20260505111402 | 51 | 153 | 0.0 | 0.0 | 0.00 | 0.00 | 0.00 | 99 | 1013.7 |
| 20260505110859 | 51 | 160 | 0.0 | 0.0 | 0.00 | 0.00 | 0.00 | 99 | 1013.6 |
| 20260505110357 | 50 | 174 | 0.0 | 0.0 | 0.00 | 0.00 | 0.00 | 99 | 1013.7 |
| 20260505101826 | 49 | 174 | 0.0 | 0.0 | 0.00 | 0.00 | 0.00 | 99 | 1013.4 |
| 20260505101322 | 49 | 165 | 0.0 | 0.0 | 0.00 | 0.00 | 0.00 | 99 | 1013.4 |
| 20260505100818 | 50 | 169 | 0.0 | 0.0 | 0.00 | 0.00 | 0.00 | 99 | 1013.2 |
| 20260505100315 | 49 | 160 | 0.0 | 0.0 | 0.00 | 0.00 | 0.00 | 99 | 1013.0 |
| 20260505095810 | 49 | 164 | 0.0 | 0.0 | 0.00 | 0.00 | 0.00 | 99 | 1013.1 |
| 20260505095308 | 49 | 148 | 0.0 | 0.0 | 0.00 | 0.00 | 0.00 | 99 | 1012.9 |
| 20260505094803 | 49 | 167 | 0.0 | 0.0 | 0.00 | 0.00 | 0.00 | 99 | 1012.9 |
| 20260505094301 | 50 | 174 | 0.0 | 0.0 | 0.00 | 0.00 | 0.00 | 99 | 1012.6 |
| 20260505093756 | 50 | 161 | 0.0 | 0.0 | 0.00 | 0.00 | 0.00 | 99 | 1012.8 |
| 20260505093254 | 50 | 172 | 0.0 | 0.0 | 0.00 | 0.00 | 0.00 | 99 | 1012.7 |
| 20260505092751 | 50 | 163 | 0.0 | 0.0 | 0.00 | 0.00 | 0.00 | 99 | 1012.6 |
| 20260505092250 | 50 | 166 | 0.0 | 0.0 | 0.00 | 0.00 | 0.00 | 99 | 1012.3 |
| 20260505091747 | 50 | 160 | 0.0 | 0.0 | 0.00 | 0.00 | 0.00 | 99 | 1012.6 |
| 20260505091245 | 50 | 168 | 0.0 | 0.0 | 0.00 | 0.00 | 0.00 | 99 | 1012.5 |
| 20260505090742 | 50 | 170 | 0.0 | 0.0 | 0.00 | 0.00 | 0.00 | 99 | 1012.5 |
| 20260505090240 | 50 | 150 | 0.0 | 0.0 | 0.00 | 0.00 | 0.00 | 99 | 1012.5 |
| 20260505085737 | 50 | 149 | 0.0 | 0.0 | 0.00 | 0.00 | 0.00 | 99 | 1012.2 |
| 20260505085235 | 50 | 170 | 0.0 | 0.0 | 0.00 | 0.00 | 0.00 | 99 | 1012.4 |
| 20260505084732 | 50 | 182 | 0.0 | 0.0 | 0.00 | 0.00 | 0.00 | 99 | 1012.3 |
| 20260505084231 | 49 | 159 | 0.0 | 0.0 | 0.00 | 0.00 | 0.00 | 99 | 1012.3 |
| 20260505083728 | 49 | 169 | 0.0 | 0.0 | 0.00 | 0.00 | 0.00 | 99 | 1012.3 |
| 20260505083224 | 49 | 177 | 0.0 | 0.0 | 0.00 | 0.00 | 0.00 | 99 | 1012.5 |
| 20260505082720 | 49 | 168 | 0.0 | 0.0 | 0.00 | 0.00 | 0.00 | 99 | 1012.3 |
| 20260505082218 | 49 | 152 | 0.0 | 0.0 | 0.00 | 0.00 | 0.00 | 99 | 1012.3 |
| 20260505081713 | 49 | 147 | 0.0 | 0.0 | 0.00 | 0.00 | 0.00 | 99 | 1012.3 |
| 20260505081211 | 49 | 150 | 0.0 | 0.0 | 0.00 | 0.00 | 0.00 | 99 | 1012.2 |
| 20260505080708 | 49 | 181 | 0.0 | 0.0 | 0.00 | 0.00 | 0.00 | 99 | 1012.3 |
| 20260505080204 | 49 | 172 | 0.0 | 0.0 | 0.00 | 0.00 | 0.00 | 99 | 1012.3 |
| 20260505075700 | 49 | 164 | 0.0 | 0.0 | 0.00 | 0.00 | 0.00 | 99 | 1012.3 |
| 20260505075157 | 49 | 176 | 0.0 | 0.0 | 0.00 | 0.00 | 0.00 | 99 | 1012.0 |
| 20260505074654 | 49 | 168 | 0.0 | 0.0 | 0.00 | 0.00 | 0.00 | 99 | 1012.0 |
| 20260505074150 | 49 | 163 | 0.0 | 0.0 | 0.00 | 0.00 | 0.00 | 99 | 1012.1 |
| 20260505073648 | 49 | 153 | 0.0 | 0.0 | 0.00 | 0.00 | 0.00 | 99 | 1011.9 |
| 20260505073146 | 49 | 145 | 0.0 | 0.0 | 0.00 | 0.00 | 0.00 | 99 | 1011.9 |
| 20260505072641 | 49 | 162 | 0.0 | 0.0 | 0.00 | 0.00 | 0.00 | 99 | 1011.8 |
| 20260505072138 | 49 | 154 | 0.0 | 0.0 | 0.00 | 0.00 | 0.00 | 99 | 1012.0 |
| 20260505071634 | 49 | 153 | 0.0 | 0.0 | 0.00 | 0.00 | 0.00 | 99 | 1011.9 |
| 20260505071132 | 49 | 141 | 0.0 | 0.0 | 0.00 | 0.00 | 0.00 | 99 | 1012.0 |
| 20260505070629 | 50 | 156 | 0.0 | 0.0 | 0.00 | 0.00 | 0.00 | 99 | 1012.2 |
| 20260505070125 | 50 | 162 | 0.0 | 0.0 | 0.00 | 0.00 | 0.00 | 99 | 1012.0 |
| 20260505065621 | 50 | 162 | 0.0 | 0.0 | 0.00 | 0.00 | 0.00 | 99 | 1012.0 |
| 20260505065118 | 50 | 161 | 0.0 | 0.0 | 0.00 | 0.00 | 0.00 | 99 | 1012.0 |
| 20260505064615 | 50 | 162 | 0.0 | 0.0 | 0.00 | 0.00 | 0.00 | 99 | 1012.3 |
| 20260505064114 | 50 | 166 | 0.0 | 0.0 | 0.00 | 0.00 | 0.00 | 99 | 1012.1 |
| 20260505063610 | 50 | 155 | 0.0 | 0.0 | 0.00 | 0.00 | 0.00 | 99 | 1012.1 |
| 20260505063106 | 50 | 155 | 0.0 | 0.0 | 0.00 | 0.00 | 0.00 | 99 | 1012.1 |
| 20260505062603 | 50 | 155 | 0.0 | 0.0 | 0.00 | 0.00 | 0.00 | 99 | 1012.0 |
| 20260505062100 | 50 | 158 | 0.0 | 0.0 | 0.00 | 0.00 | 0.00 | 99 | 1012.3 |
| 20260505061557 | 50 | 143 | 0.0 | 0.0 | 0.00 | 0.00 | 0.00 | 99 | 1012.2 |
| 20260505061055 | 50 | 144 | 0.0 | 0.0 | 0.00 | 0.00 | 0.00 | 99 | 1012.2 |
| 20260505060552 | 50 | 149 | 0.0 | 0.0 | 0.00 | 0.00 | 0.00 | 99 | 1012.2 |
| 20260505060049 | 50 | 149 | 0.0 | 0.0 | 0.00 | 0.00 | 0.00 | 99 | 1012.2 |
| 20260505055544 | 51 | 149 | 0.0 | 0.0 | 0.00 | 0.00 | 0.00 | 99 | 1012.2 |
| 20260505055041 | 51 | 149 | 0.0 | 0.0 | 0.00 | 0.00 | 0.00 | 99 | 1012.4 |
| 20260505054539 | 51 | 149 | 0.0 | 0.0 | 0.00 | 0.00 | 0.00 | 99 | 1012.2 |
| 20260505054037 | 51 | 151 | 0.0 | 0.0 | 0.00 | 0.00 | 0.00 | 99 | 1012.3 |
| 20260505053533 | 51 | 151 | 0.0 | 0.0 | 0.00 | 0.00 | 0.00 | 99 | 1012.3 |
| 20260505053030 | 51 | 151 | 0.0 | 0.0 | 0.00 | 0.00 | 0.00 | 99 | 1012.3 |
| 20260505052527 | 51 | 152 | 0.0 | 0.0 | 0.00 | 0.00 | 0.00 | 99 | 1012.2 |
| 20260505052025 | 51 | 158 | 0.0 | 0.0 | 0.00 | 0.00 | 0.00 | 99 | 1012.0 |
| 20260505051521 | 51 | 158 | 0.0 | 0.0 | 0.00 | 0.00 | 0.00 | 99 | 1012.2 |
| 20260505051020 | 51 | 164 | 0.0 | 0.0 | 0.00 | 0.00 | 0.00 | 99 | 1012.1 |
| 20260505050517 | 51 | 209 | 0.0 | 0.0 | 0.00 | 0.00 | 0.00 | 99 | 1011.9 |
| 20260505041445 | 51 | 148 | 0.0 | 0.0 | 0.00 | 0.00 | 0.00 | 99 | 1011.7 |
| 20260505040942 | 51 | 148 | 0.0 | 0.0 | 0.00 | 0.00 | 0.00 | 99 | 1011.6 |
| 20260505040440 | 51 | 145 | 0.0 | 0.0 | 0.00 | 0.00 | 0.00 | 99 | 1011.6 |
| 20260505035936 | 51 | 144 | 0.0 | 0.0 | 0.00 | 0.00 | 0.00 | 99 | 1011.5 |
| 20260505035432 | 51 | 144 | 0.0 | 0.0 | 0.00 | 0.00 | 0.00 | 99 | 1011.4 |
| 20260505034930 | 51 | 145 | 0.0 | 0.0 | 0.00 | 0.00 | 0.00 | 99 | 1011.5 |
| 20260505034426 | 51 | 152 | 0.0 | 0.0 | 0.00 | 0.00 | 0.00 | 99 | 1011.5 |
| 20260505033923 | 51 | 149 | 0.0 | 0.0 | 0.00 | 0.00 | 0.00 | 99 | 1011.3 |
| 20260505033420 | 52 | 136 | 0.0 | 0.0 | 0.00 | 0.00 | 0.00 | 99 | 1011.4 |
| 20260505032918 | 52 | 224 | 0.0 | 0.0 | 0.00 | 0.00 | 0.00 | 99 | 1011.6 |
| 20260505032415 | 52 | 130 | 0.0 | 0.0 | 0.00 | 0.00 | 0.00 | 99 | 1011.5 |
| 20260505031911 | 52 | 129 | 0.0 | 0.0 | 0.00 | 0.00 | 0.00 | 99 | 1011.4 |
| 20260505031408 | 52 | 170 | 0.0 | 0.0 | 0.00 | 0.00 | 0.00 | 98 | 1011.6 |
| 20260505030905 | 52 | 166 | 0.0 | 0.0 | 0.00 | 0.00 | 0.00 | 98 | 1011.6 |
| 20260505030401 | 52 | 166 | 0.0 | 0.0 | 0.00 | 0.00 | 0.00 | 98 | 1011.5 |
| 20260505025856 | 52 | 153 | 0.0 | 0.0 | 0.00 | 0.00 | 0.00 | 98 | 1011.6 |
| 20260505025354 | 52 | 180 | 0.0 | 0.0 | 0.00 | 0.00 | 0.00 | 98 | 1011.5 |
| 20260505024853 | 52 | 180 | 0.0 | 0.0 | 0.00 | 0.00 | 0.00 | 98 | 1011.5 |
| 20260505024350 | 53 | 180 | 0.0 | 0.0 | 0.00 | 0.00 | 0.00 | 97 | 1011.4 |
| 20260505023847 | 53 | 181 | 0.0 | 0.0 | 0.00 | 0.00 | 0.00 | 97 | 1011.4 |
| 20260505023344 | 53 | 180 | 0.0 | 0.0 | 0.00 | 0.00 | 0.00 | 97 | 1011.4 |
| 20260505022841 | 53 | 180 | 0.0 | 0.0 | 0.00 | 0.00 | 0.00 | 96 | 1011.6 |
| 20260505022338 | 53 | 180 | 0.0 | 0.0 | 0.00 | 0.00 | 0.00 | 96 | 1011.4 |
| 20260505021836 | 53 | 221 | 0.0 | 0.0 | 0.00 | 0.00 | 0.00 | 96 | 1011.2 |
| 20260505021332 | 53 | 182 | 0.0 | 0.0 | 0.00 | 0.00 | 0.00 | 96 | 1011.4 |
| 20260505020828 | 54 | 182 | 0.0 | 0.0 | 0.00 | 0.00 | 0.00 | 95 | 1011.3 |
| 20260505020324 | 54 | 182 | 0.0 | 0.0 | 0.00 | 0.00 | 0.00 | 95 | 1011.4 |
| 20260505015820 | 54 | 182 | 0.0 | 0.0 | 0.00 | 0.00 | 0.00 | 95 | 1011.4 |
| 20260505015318 | 54 | 182 | 0.0 | 0.0 | 0.00 | 0.00 | 0.00 | 94 | 1011.4 |
| 20260505014815 | 54 | 182 | 0.0 | 0.0 | 0.00 | 0.00 | 0.00 | 93 | 1011.4 |
| 20260505014312 | 55 | 182 | 0.0 | 0.0 | 0.00 | 0.00 | 0.00 | 94 | 1011.3 |
| 20260505013808 | 55 | 182 | 0.0 | 0.0 | 0.00 | 0.00 | 0.00 | 93 | 1011.4 |
| 20260505013306 | 55 | 181 | 0.0 | 0.0 | 0.00 | 0.00 | 0.00 | 92 | 1011.3 |
| 20260505012804 | 55 | 181 | 0.0 | 0.0 | 0.00 | 0.00 | 0.00 | 92 | 1011.3 |
| 20260505012304 | 55 | 199 | 0.0 | 0.0 | 0.00 | 0.00 | 0.00 | 92 | 1011.3 |
| 20260505011757 | 56 | 199 | 0.0 | 0.0 | 0.00 | 0.00 | 0.00 | 91 | 1011.3 |
| 20260505011254 | 56 | 199 | 0.0 | 0.0 | 0.00 | 0.00 | 0.00 | 91 | 1011.1 |
| 20260505010750 | 56 | 199 | 0.0 | 0.0 | 0.00 | 0.00 | 0.00 | 90 | 1011.2 |
| 20260505010247 | 56 | 199 | 0.0 | 0.0 | 0.00 | 0.00 | 0.00 | 90 | 1011.4 |
| 20260505005743 | 57 | 199 | 0.0 | 0.0 | 0.00 | 0.00 | 0.00 | 89 | 1011.1 |
| 20260505005241 | 57 | 199 | 0.0 | 0.0 | 0.00 | 0.00 | 0.00 | 88 | 1011.2 |
| 20260505004737 | 58 | 199 | 0.0 | 0.0 | 0.00 | 0.00 | 0.00 | 87 | 1011.0 |
| 20260505004234 | 58 | 199 | 0.0 | 0.0 | 0.00 | 0.00 | 0.00 | 87 | 1011.0 |
| 20260505003731 | 58 | 199 | 0.0 | 0.0 | 0.00 | 0.00 | 0.00 | 86 | 1011.1 |
| 20260505003229 | 59 | 199 | 0.0 | 0.0 | 0.00 | 0.00 | 0.00 | 86 | 1011.2 |
| 20260505002725 | 59 | 199 | 0.0 | 0.0 | 0.00 | 0.00 | 0.00 | 85 | 1011.4 |
| 20260505002222 | 60 | 199 | 0.0 | 0.0 | 0.00 | 0.00 | 0.00 | 84 | 1011.3 |
| 20260505001720 | 60 | 199 | 0.0 | 0.0 | 0.00 | 0.00 | 0.00 | 82 | 1011.5 |
| 20260505001217 | 61 | 199 | 0.0 | 0.0 | 0.00 | 0.00 | 0.00 | 82 | 1011.4 |
| 20260505000714 | 62 | 199 | 0.0 | 0.0 | 0.00 | 0.00 | 0.00 | 81 | 1011.4 |
| 20260505000212 | 62 | 199 | 0.0 | 0.0 | 0.00 | 0.00 | 0.00 | 80 | 1011.5 |
| 20260504235708 | 62 | 199 | 0.0 | 0.0 | 0.00 | 0.00 | 0.00 | 80 | 1011.3 |
| 20260504235204 | 63 | 199 | 0.0 | 0.0 | 0.00 | 0.00 | 0.00 | 79 | 1011.2 |
| 20260504234702 | 63 | 171 | 0.0 | 0.0 | 0.00 | 0.00 | 0.00 | 79 | 1011.5 |
| 20260504234159 | 63 | 171 | 0.0 | 0.0 | 0.00 | 0.00 | 0.00 | 77 | 1011.4 |
| 20260504233655 | 63 | 176 | 0.0 | 0.0 | 0.00 | 0.00 | 0.00 | 76 | 1011.4 |
| 20260504233151 | 64 | 200 | 0.0 | 0.0 | 0.00 | 0.00 | 0.00 | 76 | 1011.6 |
| 20260504232648 | 64 | 199 | 0.0 | 0.0 | 0.00 | 0.00 | 0.00 | 74 | 1011.5 |
| 20260504232145 | 65 | 169 | 0.0 | 0.0 | 0.00 | 0.00 | 0.00 | 71 | 1011.6 |
| 20260504231642 | 66 | 157 | 0.0 | 0.9 | 0.00 | 0.00 | 0.00 | 72 | 1011.6 |
| 20260504231138 | 66 | 214 | 0.0 | 0.0 | 0.00 | 0.00 | 0.00 | 70 | 1011.7 |
| 20260504230635 | 67 | 218 | 0.0 | 0.0 | 0.00 | 0.00 | 0.00 | 70 | 1011.7 |
| 20260504230134 | 68 | 217 | 0.0 | 0.0 | 0.00 | 0.00 | 0.00 | 65 | 1011.5 |
| 20260504225631 | 69 | 222 | 0.0 | 0.0 | 0.00 | 0.00 | 0.00 | 63 | 1011.7 |
| 20260504225127 | 70 | 214 | 0.0 | 0.0 | 0.00 | 0.00 | 0.00 | 59 | 1012.0 |
| 20260504224624 | 71 | 187 | 0.0 | 1.7 | 0.00 | 0.00 | 0.00 | 55 | 1011.8 |
| 20260504224120 | 71 | 129 | 1.7 | 2.6 | 0.00 | 0.00 | 0.00 | 51 | 1011.9 |
| 20260504223617 | 72 | 41 | 1.7 | 1.7 | 0.00 | 0.00 | 0.00 | 52 | 1012.0 |
| 20260504223114 | 72 | 41 | 0.9 | 1.7 | 0.00 | 0.00 | 0.00 | 50 | 1012.0 |
| 20260504222611 | 73 | 56 | 1.7 | 2.6 | 0.00 | 0.00 | 0.00 | 48 | 1011.9 |
| 20260504222108 | 74 | 272 | 1.7 | 2.6 | 0.00 | 0.00 | 0.00 | 47 | 1012.2 |
| 20260504221605 | 74 | 169 | 0.0 | 1.7 | 0.00 | 0.00 | 0.00 | 46 | 1012.1 |
| 20260504221102 | 74 | 70 | 1.7 | 1.7 | 0.00 | 0.00 | 0.00 | 48 | 1012.1 |
| 20260504220558 | 73 | 269 | 0.9 | 2.6 | 0.00 | 0.00 | 0.00 | 50 | 1012.0 |
| 20260504220056 | 73 | 339 | 0.9 | 1.7 | 0.00 | 0.00 | 0.00 | 48 | 1012.1 |
| 20260504215552 | 72 | 64 | 0.0 | 0.9 | 0.00 | 0.00 | 0.00 | 52 | 1012.2 |
| 20260504215050 | 72 | 107 | 0.9 | 0.9 | 0.00 | 0.00 | 0.00 | 54 | 1011.8 |
| 20260504214545 | 73 | 334 | 1.7 | 2.6 | 0.00 | 0.00 | 0.00 | 50 | 1011.9 |
| 20260504214042 | 74 | 309 | 0.9 | 1.7 | 0.00 | 0.00 | 0.00 | 48 | 1011.9 |
| 20260504213538 | 73 | 236 | 0.0 | 1.7 | 0.00 | 0.00 | 0.00 | 47 | 1012.0 |
| 20260504213036 | 72 | 309 | 0.0 | 0.9 | 0.00 | 0.00 | 0.00 | 50 | 1012.0 |
| 20260504212531 | 71 | 250 | 0.9 | 0.9 | 0.00 | 0.00 | 0.00 | 55 | 1012.0 |
| 20260504212029 | 70 | 187 | 0.0 | 5.2 | 0.00 | 0.00 | 0.00 | 55 | 1011.8 |
| 20260504211526 | 71 | 114 | 0.0 | 0.9 | 0.00 | 0.00 | 0.00 | 59 | 1012.0 |
| 20260504211023 | 71 | 69 | 3.5 | 3.5 | 0.00 | 0.00 | 0.00 | 52 | 1012.1 |
| 20260504210520 | 72 | 80 | 1.7 | 2.6 | 0.00 | 0.00 | 0.00 | 49 | 1012.0 |
| 20260504210016 | 73 | 315 | 0.0 | 6.1 | 0.00 | 0.00 | 0.00 | 48 | 1011.8 |
| 20260504205515 | 73 | 5 | 0.9 | 0.9 | 0.00 | 0.00 | 0.00 | 46 | 1011.5 |
| 20260504205012 | 74 | 61 | 0.9 | 3.5 | 0.00 | 0.00 | 0.00 | 47 | 1011.3 |
| 20260504204510 | 73 | 105 | 0.9 | 1.7 | 0.00 | 0.00 | 0.00 | 49 | 1011.2 |
| 20260504204009 | 73 | 120 | 0.0 | 1.7 | 0.00 | 0.00 | 0.00 | 50 | 1011.5 |
| 20260504203506 | 73 | 288 | 1.7 | 2.6 | 0.00 | 0.00 | 0.00 | 47 | 1011.4 |
| 20260504203003 | 74 | 289 | 0.9 | 0.9 | 0.00 | 0.00 | 0.00 | 49 | 1011.5 |
| 20260504202459 | 73 | 285 | 0.9 | 3.5 | 0.00 | 0.00 | 0.00 | 46 | 1011.5 |
| 20260504201955 | 74 | 318 | 0.9 | 0.9 | 0.00 | 0.00 | 0.00 | 45 | 1011.7 |
| 20260504201452 | 74 | 70 | 0.0 | 3.5 | 0.00 | 0.00 | 0.00 | 48 | 1011.7 |
| 20260504200950 | 74 | 43 | 0.0 | 2.6 | 0.00 | 0.00 | 0.00 | 48 | 1011.8 |